sensor_id;sensor_type;location;lat;lon;timestamp;P1;durP1;ratioP1;P2;durP2;ratioP2
73104;SDS011;61296;50.526;30.792;2023-11-21T00:05:45;18.50;;;7.93;;
73104;SDS011;61296;50.526;30.792;2023-11-21T00:21:05;21.17;;;8.48;;
73104;SDS011;61296;50.526;30.792;2023-11-21T00:36:24;18.70;;;8.02;;
73104;SDS011;61296;50.526;30.792;2023-11-21T00:51:44;18.45;;;8.63;;
73104;SDS011;61296;50.526;30.792;2023-11-21T01:07:04;22.50;;;9.60;;
73104;SDS011;61296;50.526;30.792;2023-11-21T01:22:24;23.35;;;9.25;;
73104;SDS011;61296;50.526;30.792;2023-11-21T01:37:45;19.45;;;8.95;;
73104;SDS011;61296;50.526;30.792;2023-11-21T01:53:06;21.30;;;9.85;;
73104;SDS011;61296;50.526;30.792;2023-11-21T02:08:26;31.60;;;13.15;;
73104;SDS011;61296;50.526;30.792;2023-11-21T02:23:45;34.25;;;14.55;;
73104;SDS011;61296;50.526;30.792;2023-11-21T02:39:05;25.77;;;11.77;;
73104;SDS011;61296;50.526;30.792;2023-11-21T02:54:26;20.40;;;9.63;;
73104;SDS011;61296;50.526;30.792;2023-11-21T03:09:46;22.58;;;9.50;;
73104;SDS011;61296;50.526;30.792;2023-11-21T03:25:06;19.52;;;9.00;;
73104;SDS011;61296;50.526;30.792;2023-11-21T03:40:29;17.90;;;8.63;;
73104;SDS011;61296;50.526;30.792;2023-11-21T03:55:50;23.23;;;9.30;;
73104;SDS011;61296;50.526;30.792;2023-11-21T04:11:10;22.73;;;10.07;;
73104;SDS011;61296;50.526;30.792;2023-11-21T04:26:30;31.02;;;11.80;;
73104;SDS011;61296;50.526;30.792;2023-11-21T04:41:50;25.50;;;11.05;;
73104;SDS011;61296;50.526;30.792;2023-11-21T04:57:09;25.52;;;11.15;;
73104;SDS011;61296;50.526;30.792;2023-11-21T05:12:30;26.65;;;11.48;;
73104;SDS011;61296;50.526;30.792;2023-11-21T05:27:56;33.65;;;12.80;;
73104;SDS011;61296;50.526;30.792;2023-11-21T05:43:17;39.38;;;14.00;;
73104;SDS011;61296;50.526;30.792;2023-11-21T05:58:39;46.35;;;16.77;;
73104;SDS011;61296;50.526;30.792;2023-11-21T06:13:59;111.53;;;44.25;;
73104;SDS011;61296;50.526;30.792;2023-11-21T06:29:19;70.68;;;27.77;;
73104;SDS011;61296;50.526;30.792;2023-11-21T06:44:38;43.20;;;19.10;;
73104;SDS011;61296;50.526;30.792;2023-11-21T06:59:58;60.83;;;26.10;;
73104;SDS011;61296;50.526;30.792;2023-11-21T07:15:17;102.35;;;45.35;;
73104;SDS011;61296;50.526;30.792;2023-11-21T07:30:38;140.88;;;56.50;;
73104;SDS011;61296;50.526;30.792;2023-11-21T07:45:57;108.95;;;45.45;;
73104;SDS011;61296;50.526;30.792;2023-11-21T08:01:17;99.63;;;36.95;;
73104;SDS011;61296;50.526;30.792;2023-11-21T08:16:36;90.72;;;35.63;;
73104;SDS011;61296;50.526;30.792;2023-11-21T08:31:56;89.22;;;32.40;;
73104;SDS011;61296;50.526;30.792;2023-11-21T08:47:16;61.05;;;22.65;;
73104;SDS011;61296;50.526;30.792;2023-11-21T09:02:35;31.50;;;14.18;;
73104;SDS011;61296;50.526;30.792;2023-11-21T09:17:56;29.63;;;13.07;;
73104;SDS011;61296;50.526;30.792;2023-11-21T09:33:15;19.85;;;9.13;;
73104;SDS011;61296;50.526;30.792;2023-11-21T09:48:34;22.60;;;10.10;;
73104;SDS011;61296;50.526;30.792;2023-11-21T10:03:57;17.88;;;9.38;;
73104;SDS011;61296;50.526;30.792;2023-11-21T10:19:18;18.95;;;9.23;;
73104;SDS011;61296;50.526;30.792;2023-11-21T10:34:40;21.33;;;8.50;;
73104;SDS011;61296;50.526;30.792;2023-11-21T10:50:00;28.23;;;12.80;;
73104;SDS011;61296;50.526;30.792;2023-11-21T11:05:21;15.20;;;7.38;;
73104;SDS011;61296;50.526;30.792;2023-11-21T11:37:33;24.40;;;10.68;;
73104;SDS011;61296;50.526;30.792;2023-11-21T11:52:53;21.60;;;9.43;;
73104;SDS011;61296;50.526;30.792;2023-11-21T12:08:28;24.77;;;9.88;;
73104;SDS011;61296;50.526;30.792;2023-11-21T12:24:03;18.17;;;9.18;;
73104;SDS011;61296;50.526;30.792;2023-11-21T12:39:40;20.88;;;9.55;;
73104;SDS011;61296;50.526;30.792;2023-11-21T12:55:23;22.60;;;9.73;;
73104;SDS011;61296;50.526;30.792;2023-11-21T13:10:56;26.00;;;12.07;;
73104;SDS011;61296;50.526;30.792;2023-11-21T13:26:30;20.05;;;10.13;;
73104;SDS011;61296;50.526;30.792;2023-11-21T13:42:05;27.03;;;11.57;;
73104;SDS011;61296;50.526;30.792;2023-11-21T13:57:38;27.13;;;11.93;;
73104;SDS011;61296;50.526;30.792;2023-11-21T14:13:13;25.65;;;11.57;;
73104;SDS011;61296;50.526;30.792;2023-11-21T14:28:46;37.45;;;13.65;;
73104;SDS011;61296;50.526;30.792;2023-11-21T14:44:21;28.88;;;11.85;;
73104;SDS011;61296;50.526;30.792;2023-11-21T14:59:58;31.30;;;12.55;;
73104;SDS011;61296;50.526;30.792;2023-11-21T15:15:31;27.10;;;11.75;;
73104;SDS011;61296;50.526;30.792;2023-11-21T15:31:06;28.52;;;11.48;;
73104;SDS011;61296;50.526;30.792;2023-11-21T15:46:40;35.60;;;14.63;;
73104;SDS011;61296;50.526;30.792;2023-11-21T16:02:14;35.00;;;13.38;;
73104;SDS011;61296;50.526;30.792;2023-11-21T16:17:49;34.35;;;13.73;;
73104;SDS011;61296;50.526;30.792;2023-11-21T16:33:30;39.03;;;15.70;;
73104;SDS011;61296;50.526;30.792;2023-11-21T16:49:03;44.55;;;17.48;;
73104;SDS011;61296;50.526;30.792;2023-11-21T17:04:36;33.85;;;14.52;;
73104;SDS011;61296;50.526;30.792;2023-11-21T17:20:13;38.53;;;17.37;;
73104;SDS011;61296;50.526;30.792;2023-11-21T17:35:48;37.65;;;15.45;;
73104;SDS011;61296;50.526;30.792;2023-11-21T17:51:21;48.13;;;19.17;;
73104;SDS011;61296;50.526;30.792;2023-11-21T18:06:54;48.47;;;18.48;;
73104;SDS011;61296;50.526;30.792;2023-11-21T18:22:32;37.47;;;15.60;;
73104;SDS011;61296;50.526;30.792;2023-11-21T18:38:05;47.60;;;18.80;;
73104;SDS011;61296;50.526;30.792;2023-11-21T18:53:38;48.58;;;18.42;;
73104;SDS011;61296;50.526;30.792;2023-11-21T19:09:13;41.22;;;17.70;;
73104;SDS011;61296;50.526;30.792;2023-11-21T19:24:46;40.72;;;16.48;;
73104;SDS011;61296;50.526;30.792;2023-11-21T19:40:20;48.00;;;17.67;;
73104;SDS011;61296;50.526;30.792;2023-11-21T19:55:55;50.80;;;19.95;;
73104;SDS011;61296;50.526;30.792;2023-11-21T20:11:28;47.53;;;19.10;;
73104;SDS011;61296;50.526;30.792;2023-11-21T20:27:06;34.40;;;14.32;;
73104;SDS011;61296;50.526;30.792;2023-11-21T20:42:39;31.93;;;14.27;;
73104;SDS011;61296;50.526;30.792;2023-11-21T20:58:15;32.50;;;12.87;;
73104;SDS011;61296;50.526;30.792;2023-11-21T21:13:48;28.77;;;12.68;;
73104;SDS011;61296;50.526;30.792;2023-11-21T21:29:25;28.33;;;13.77;;
73104;SDS011;61296;50.526;30.792;2023-11-21T21:44:58;31.05;;;14.10;;
73104;SDS011;61296;50.526;30.792;2023-11-21T22:00:31;35.10;;;13.90;;
73104;SDS011;61296;50.526;30.792;2023-11-21T22:16:04;36.35;;;15.00;;
73104;SDS011;61296;50.526;30.792;2023-11-21T22:31:43;40.63;;;15.40;;
73104;SDS011;61296;50.526;30.792;2023-11-21T22:47:12;41.58;;;17.88;;
73104;SDS011;61296;50.526;30.792;2023-11-21T23:02:46;40.75;;;16.30;;
73104;SDS011;61296;50.526;30.792;2023-11-21T23:18:19;37.20;;;16.08;;
73104;SDS011;61296;50.526;30.792;2023-11-21T23:33:59;33.95;;;14.02;;
73104;SDS011;61296;50.526;30.792;2023-11-21T23:49:32;36.03;;;15.30;;
